Time;durP1;ratioP1;P1;durP2;ratioP2;P2;SDS_P1;SDS_P2;PMS_P1;PMS_P2;Temp;Humidity;BMP_temperature;BMP_pressure;BME280_temperature;BME280_humidity;BME280_pressure;Samples;Min_cycle;Max_cycle;Signal;HPM_P1;HPM_P2
2021/04/24 03:01:02;;;;;;;16.23;14.65;;;5.40;99.90;;;;;;5669083;22;89021;-89
2021/04/24 03:03:29;;;;;;;19.27;17.58;;;5.30;99.90;;;;;;4982339;28;86962;-88
2021/04/24 03:05:57;;;;;;;21.48;19.83;;;5.20;99.90;;;;;;4980838;28;87009;-88
2021/04/24 03:08:23;;;;;;;14.57;13.25;;;5.20;99.90;;;;;;4959980;28;91178;-88
2021/04/24 03:10:48;;;;;;;21.65;20.15;;;5.10;99.90;;;;;;4992811;28;87029;-87
2021/04/24 03:13:14;;;;;;;15.38;14.13;;;5.10;99.90;;;;;;4985479;28;86914;-87
2021/04/24 03:15:40;;;;;;;16.92;15.65;;;5.00;99.90;;;;;;4983323;28;86795;-87
2021/04/24 03:18:06;;;;;;;17.77;16.38;;;5.00;99.90;;;;;;4982649;28;87617;-87
2021/04/24 03:23:54;;;;;;;13.80;12.23;;;5.00;99.90;;;;;;4961807;28;86667;-87
2021/04/24 03:26:20;;;;;;;13.32;12.20;;;4.90;99.90;;;;;;4968355;28;87035;-87
2021/04/24 03:28:46;;;;;;;12.70;11.57;;;4.90;99.90;;;;;;4987465;28;87780;-87
2021/04/24 03:31:12;;;;;;;12.18;11.15;;;4.90;99.90;;;;;;4985803;28;86206;-87
2021/04/24 03:33:39;;;;;;;13.25;11.27;;;4.80;99.90;;;;;;4987383;28;86790;-87
2021/04/24 03:36:06;;;;;;;14.10;12.68;;;4.70;99.90;;;;;;4986775;28;86068;-87
2021/04/24 03:38:32;;;;;;;13.02;11.77;;;4.70;99.90;;;;;;4986806;28;88327;-87
2021/04/24 03:40:58;;;;;;;14.40;12.95;;;4.70;99.90;;;;;;4986849;28;87544;-87
2021/04/24 03:43:23;;;;;;;14.77;13.32;;;4.70;99.90;;;;;;4969057;28;87645;-87
2021/04/24 03:49:11;;;;;;;;;;;4.60;99.90;;;;;;4984167;28;86684;-87
2021/04/24 03:54:59;;;;;;;12.48;11.05;;;4.50;99.90;;;;;;4964315;28;86816;-87
2021/04/24 03:57:24;;;;;;;13.63;11.20;;;4.50;99.90;;;;;;4967595;28;87014;-87
2021/04/24 03:59:50;;;;;;;14.35;11.63;;;;;;;;;;4967117;28;87104;-87
2021/04/24 04:02:16;;;;;;;16.70;12.07;;;;;;;;;;4949308;28;90313;-87
2021/04/24 04:04:42;;;;;;;12.52;11.20;;;;;;;;;;4967476;28;86684;-87
2021/04/24 04:10:31;;;;;;;13.77;12.48;;;4.40;99.90;;;;;;4964636;28;87775;-86
2021/04/24 04:12:57;;;;;;;14.15;12.85;;;;;;;;;;4966643;28;88921;-87
2021/04/24 04:15:25;;;;;;;16.20;14.75;;;4.30;99.90;;;;;;4949463;28;86677;-87
2021/04/24 04:18:04;;;;;;;15.45;14.02;;;4.30;99.90;;;;;;4967087;28;86957;-87
2021/04/24 04:20:30;;;;;;;14.73;13.15;;;;;;;;;;4966939;28;88789;-88
2021/04/24 04:26:18;;;;;;;12.57;11.48;;;4.40;99.90;;;;;;4964125;28;86458;-86
2021/04/24 04:28:44;;;;;;;18.05;16.40;;;;;;;;;;4967174;28;86315;-89
2021/04/24 04:31:11;;;;;;;13.95;12.63;;;;;;;;;;4980871;28;87388;-87
2021/04/24 04:33:37;;;;;;;15.00;13.55;;;;;;;;;;4968005;28;90877;-87
2021/04/24 04:36:04;;;;;;;17.23;15.32;;;4.50;99.90;;;;;;4985975;28;87358;-87
2021/04/24 04:38:31;;;;;;;17.73;16.33;;;;;;;;;;4986616;28;86433;-87
2021/04/24 04:44:49;;;;;;;18.75;17.15;;;4.50;99.90;;;;;;4983421;28;86640;-87
2021/04/24 04:47:15;;;;;;;19.77;18.17;;;4.50;99.90;;;;;;4975774;28;86745;-87
2021/04/24 04:49:41;;;;;;;17.95;16.27;;;4.50;99.90;;;;;;4966842;28;87096;-87
2021/04/24 04:52:07;;;;;;;17.83;16.33;;;4.50;99.90;;;;;;4957440;28;87736;-87
2021/04/24 04:54:33;;;;;;;15.23;13.82;;;;;;;;;;4929632;28;91364;-87
2021/04/24 04:56:58;;;;;;;16.58;15.18;;;4.60;99.90;;;;;;4935368;28;87052;-86
2021/04/24 04:59:27;;;;;;;17.48;15.98;;;4.70;99.90;;;;;;4965829;28;86439;-87
2021/04/24 05:01:53;;;;;;;21.30;19.73;;;;;;;;;;4964848;28;88163;-87
2021/04/24 05:04:19;;;;;;;25.55;23.77;;;;;;;;;;4966585;28;87889;-87
2021/04/24 05:06:48;;;;;;;24.73;22.83;;;;;;;;;;4943420;28;86696;-87
2021/04/24 05:09:14;;;;;;;21.60;19.77;;;5.00;99.90;;;;;;4931243;28;87021;-87
2021/04/24 05:15:02;;;;;;;11.65;10.65;;;5.20;99.90;;;;;;4963395;28;86332;-87
2021/04/24 05:17:28;;;;;;;12.38;11.15;;;5.30;99.90;;;;;;4950791;28;86667;-87
2021/04/24 05:19:54;;;;;;;12.85;11.73;;;5.30;99.90;;;;;;4950290;28;86124;-87
2021/04/24 05:22:20;;;;;;;12.20;11.05;;;5.50;99.90;;;;;;4968564;28;87172;-88
2021/04/24 05:24:45;;;;;;;13.15;11.98;;;5.50;99.90;;;;;;4965709;28;90428;-89
2021/04/24 05:27:11;;;;;;;13.32;12.13;;;5.70;99.90;;;;;;4949810;28;87736;-88
2021/04/24 05:29:37;;;;;;;15.13;13.63;;;5.80;99.90;;;;;;4967196;28;86639;-88
2021/04/24 05:32:03;;;;;;;19.58;18.17;;;5.90;99.90;;;;;;4966392;28;91098;-88
2021/04/24 05:34:30;;;;;;;19.25;17.50;;;;;;;;;;4967216;28;89548;-88
2021/04/24 05:40:36;;;;;;;42.03;38.80;;;6.20;99.90;;;;;;4964827;28;86596;-88
2021/04/24 05:43:02;;;;;;;35.10;32.75;;;;;;;;;;4948525;28;89174;-87
2021/04/24 05:45:28;;;;;;;26.58;23.65;;;6.40;99.40;;;;;;4964797;28;87141;-87
2021/04/24 05:47:54;;;;;;;24.05;21.75;;;6.50;99.50;;;;;;4948454;28;86771;-87
2021/04/24 05:50:23;;;;;;;24.90;23.08;;;6.60;99.00;;;;;;4954988;28;86965;-87
2021/04/24 05:52:49;;;;;;;39.53;37.10;;;6.70;98.80;;;;;;4931377;28;90366;-88
2021/04/24 05:55:15;;;;;;;37.58;35.28;;;6.80;98.40;;;;;;4963372;28;89829;-88
2021/04/24 06:01:05;;;;;;;56.40;51.60;;;7.00;97.90;;;;;;4949929;28;86905;-88
2021/04/24 06:03:31;;;;;;;60.67;56.70;;;;;;;;;;4935018;28;87859;-87
2021/04/24 06:05:57;;;;;;;62.85;57.80;;;7.30;98.30;;;;;;4966938;28;87510;-87
2021/04/24 06:11:45;;;;;;;35.00;31.30;;;7.50;97.60;;;;;;4966490;28;86113;-86
2021/04/24 06:14:12;;;;;;;23.73;21.67;;;7.60;97.70;;;;;;4970649;28;87075;-87
2021/04/24 06:20:00;;;;;;;21.05;18.88;;;;;;;;;;4984663;28;87760;-87
2021/04/24 06:22:27;;;;;;;15.32;13.40;;;;;;;;;;4987796;28;86691;-88
2021/04/24 06:24:53;;;;;;;24.98;22.45;;;;;;;;;;4959586;28;88765;-87
2021/04/24 06:27:18;;;;;;;22.10;20.23;;;8.20;95.50;;;;;;4985750;28;88822;-88
2021/04/24 06:29:44;;;;;;;23.95;21.85;;;8.30;94.50;;;;;;4986885;28;86714;-88
2021/04/24 06:32:10;;;;;;;21.80;20.15;;;8.40;95.30;;;;;;4986635;28;86573;-88
2021/04/24 06:34:37;;;;;;;20.23;18.52;;;8.60;95.30;;;;;;4978023;28;90422;-90
2021/04/24 06:37:04;;;;;;;30.25;28.30;;;;;;;;;;4954677;28;89041;-88
2021/04/24 06:39:30;;;;;;;38.42;36.30;;;;;;;;;;4993662;28;86466;-86
2021/04/24 06:41:56;;;;;;;48.90;46.50;;;9.00;93.30;;;;;;4994978;28;86622;-86
2021/04/24 06:44:22;;;;;;;31.05;29.15;;;9.10;92.90;;;;;;4990445;28;89879;-86
2021/04/24 06:50:12;;;;;;;12.68;11.48;;;9.40;92.30;;;;;;4983817;28;86060;-86
2021/04/24 06:52:38;;;;;;;14.77;13.68;;;9.50;92.00;;;;;;4987651;28;87038;-86
2021/04/24 06:55:05;;;;;;;20.70;19.23;;;9.70;90.90;;;;;;4985472;28;86737;-85
2021/04/24 06:57:31;;;;;;;14.48;13.18;;;9.80;90.30;;;;;;4985744;28;88924;-86
2021/04/24 06:59:57;;;;;;;12.48;11.32;;;9.90;89.80;;;;;;4989550;28;86271;-86
2021/04/24 07:02:23;;;;;;;12.88;11.68;;;;;;;;;;4992076;28;86120;-86
2021/04/24 07:04:50;;;;;;;20.35;19.02;;;;;;;;;;4992095;28;86820;-87
2021/04/24 07:07:17;;;;;;;15.02;13.77;;;10.40;84.00;;;;;;4988378;28;86683;-85
2021/04/24 07:09:42;;;;;;;13.82;12.85;;;10.50;84.80;;;;;;4989902;28;87558;-85
2021/04/24 07:12:09;;;;;;;12.95;11.95;;;10.60;87.20;;;;;;4988780;28;87020;-86
2021/04/24 07:14:35;;;;;;;13.95;12.95;;;10.80;86.30;;;;;;4971498;28;89549;-86
2021/04/24 07:17:01;;;;;;;15.75;14.63;;;10.90;87.30;;;;;;4971701;28;87979;-85
2021/04/24 07:19:27;;;;;;;17.30;16.23;;;11.10;84.80;;;;;;4989627;28;86694;-86
2021/04/24 07:21:53;;;;;;;15.02;14.05;;;11.30;83.70;;;;;;4989059;28;86829;-87
2021/04/24 07:24:19;;;;;;;20.42;19.08;;;11.50;83.70;;;;;;4988677;28;86960;-86
2021/04/24 07:26:44;;;;;;;14.30;13.30;;;11.80;86.80;;;;;;4989266;28;87421;-85
2021/04/24 07:29:10;;;;;;;21.27;20.08;;;12.70;92.10;;;;;;4988062;28;86410;-86
2021/04/24 07:31:36;;;;;;;28.67;27.08;;;13.60;88.30;;;;;;4987880;28;86990;-87
2021/04/24 07:34:02;;;;;;;22.25;21.05;;;12.80;80.20;;;;;;4985531;28;89021;-86
2021/04/24 07:36:29;;;;;;;36.08;34.17;;;13.60;78.60;;;;;;4987542;28;88352;-86
2021/04/24 07:42:18;;;;;;;25.27;23.77;;;16.70;64.90;;;;;;4984753;28;86693;-87
2021/04/24 07:44:44;;;;;;;16.33;15.25;;;19.00;56.90;;;;;;4987090;28;87048;-87
2021/04/24 07:47:09;;;;;;;59.13;56.30;;;21.00;49.30;;;;;;4985515;28;87412;-88
2021/04/24 07:49:39;;;;;;;28.90;27.20;;;22.80;46.70;;;;;;4986727;28;86689;-89
2021/04/24 07:52:06;;;;;;;22.57;21.17;;;24.60;43.30;;;;;;4991132;28;86247;-91
2021/04/24 07:54:36;;;;;;;32.70;30.90;;;26.00;40.30;;;;;;4988322;28;87634;-89
2021/04/24 07:57:03;;;;;;;34.33;32.63;;;27.20;38.30;;;;;;5008198;28;86699;-87
2021/04/24 07:59:29;;;;;;;35.25;33.45;;;28.60;36.30;;;;;;4992838;28;86993;-86
2021/04/24 08:01:55;;;;;;;84.15;80.28;;;29.70;34.70;;;;;;4997473;28;86867;-86
2021/04/24 08:07:44;;;;;;;238.48;228.43;;;32.20;30.00;;;;;;5005518;28;86213;-86
2021/04/24 08:10:10;;;;;;;110.15;105.13;;;32.30;31.00;;;;;;5002043;28;86778;-87
2021/04/24 08:12:36;;;;;;;101.50;97.15;;;32.90;30.30;;;;;;5004235;28;86263;-87
2021/04/24 08:15:04;;;;;;;63.92;60.92;;;33.30;29.60;;;;;;4997301;28;86818;-86
2021/04/24 08:17:29;;;;;;;43.50;41.10;;;34.10;28.80;;;;;;5001378;28;87941;-86
2021/04/24 08:19:55;;;;;;;113.65;108.47;;;34.80;28.60;;;;;;4989054;28;86793;-86
2021/04/24 08:22:21;;;;;;;92.53;88.35;;;35.40;27.90;;;;;;4986516;28;87111;-87
2021/04/24 08:25:01;;;;;;;48.97;46.42;;;35.30;27.00;;;;;;4993269;28;87813;-87
2021/04/24 08:27:27;;;;;;;29.67;27.95;;;36.00;26.50;;;;;;4957766;28;90918;-87
2021/04/24 08:29:52;;;;;;;70.63;67.28;;;36.50;26.50;;;;;;4968820;28;86705;-87
2021/04/24 08:32:18;;;;;;;144.60;138.75;;;36.10;26.40;;;;;;4976144;28;86981;-87
2021/04/24 08:34:44;;;;;;;54.88;52.15;;;36.60;26.20;;;;;;4985113;28;87671;-87
2021/04/24 08:37:10;;;;;;;41.67;39.60;;;36.40;25.70;;;;;;4986488;28;87512;-87
2021/04/24 08:39:37;;;;;;;93.47;89.47;;;37.10;25.30;;;;;;4985704;28;86604;-87
2021/04/24 08:42:04;;;;;;;85.35;81.50;;;37.50;25.70;;;;;;4969219;28;86165;-86
2021/04/24 08:44:30;;;;;;;73.30;70.00;;;;;;;;;;4969539;28;89450;-87
2021/04/24 08:46:57;;;;;;;212.38;203.82;;;38.60;24.80;;;;;;4966171;28;86902;-86
2021/04/24 08:49:23;;;;;;;93.47;89.32;;;39.20;25.00;;;;;;4971182;28;87540;-87
2021/04/24 08:51:51;;;;;;;85.70;81.97;;;39.70;24.80;;;;;;4985849;28;86718;-87
2021/04/24 08:54:17;;;;;;;34.47;32.58;;;39.90;24.80;;;;;;4984541;28;86938;-87
2021/04/24 08:56:44;;;;;;;110.80;105.93;;;40.20;24.50;;;;;;4973159;28;86731;-87
2021/04/24 08:59:10;;;;;;;122.40;117.13;;;40.20;24.30;;;;;;4964333;28;86827;-87
2021/04/24 09:01:36;;;;;;;71.80;68.22;;;40.70;24.10;;;;;;4963527;28;87055;-87
2021/04/24 09:04:02;;;;;;;58.63;55.65;;;41.40;23.70;;;;;;4965922;28;87709;-87
2021/04/24 09:06:29;;;;;;;57.20;54.40;;;;;;;;;;4982128;28;86203;-87
2021/04/24 09:08:58;;;;;;;60.85;58.00;;;41.50;22.80;;;;;;4979729;28;86682;-87
2021/04/24 09:11:24;;;;;;;74.65;71.10;;;41.70;23.00;;;;;;4984038;28;86857;-87
2021/04/24 09:14:03;;;;;;;82.47;78.75;;;42.00;22.70;;;;;;4984630;28;89651;-87
2021/04/24 09:16:29;;;;;;;75.70;72.28;;;42.30;23.00;;;;;;4984570;28;87234;-87
2021/04/24 09:18:57;;;;;;;128.50;122.93;;;42.70;23.30;;;;;;4991102;28;86753;-87
2021/04/24 09:21:25;;;;;;;177.38;169.80;;;42.90;23.00;;;;;;5002405;28;86817;-88
2021/04/24 09:23:51;;;;;;;69.82;66.63;;;43.30;22.90;;;;;;5001075;28;86905;-87
2021/04/24 09:26:23;;;;;;;157.68;151.05;;;43.20;22.70;;;;;;4984333;28;87873;-87
2021/04/24 09:32:21;;;;;;;58.75;55.95;;;43.70;22.00;;;;;;4978177;28;86074;-87
2021/04/24 09:34:49;;;;;;;74.47;70.93;;;43.80;22.50;;;;;;4991245;28;87584;-87
2021/04/24 09:37:20;;;;;;;59.58;56.80;;;43.90;22.50;;;;;;4996211;28;87390;-88
2021/04/24 09:39:52;;;;;;;166.23;159.45;;;44.10;21.90;;;;;;4985497;28;88077;-87
2021/04/24 09:42:39;;;;;;;65.65;62.58;;;44.30;22.40;;;;;;4987589;28;86682;-87
2021/04/24 09:45:43;;;;;;;102.32;97.97;;;44.40;22.10;;;;;;4989096;28;87046;-87
2021/04/24 09:48:23;;;;;;;175.45;168.48;;;44.30;21.90;;;;;;4968943;28;86506;-87
2021/04/24 09:50:49;;;;;;;95.22;90.90;;;44.40;21.90;;;;;;4967624;28;86846;-87
2021/04/24 09:53:23;;;;;;;92.43;88.18;;;44.20;21.90;;;;;;4987053;28;86853;-87
2021/04/24 09:55:53;;;;;;;79.05;75.28;;;44.70;21.70;;;;;;4985749;28;87218;-88
2021/04/24 09:59:00;;;;;;;274.92;264.08;;;44.80;22.20;;;;;;4953921;28;90053;-88
2021/04/24 10:01:29;;;;;;;268.60;257.90;;;44.20;21.30;;;;;;4965919;28;86699;-87
2021/04/24 10:03:55;;;;;;;;;;;44.40;21.90;;;;;;4980396;28;86976;-88
2021/04/24 10:06:40;;;;;;;167.23;160.43;;;44.80;21.70;;;;;;4987279;28;88140;-87
2021/04/24 10:09:30;;;;;;;94.15;90.07;;;45.10;21.70;;;;;;4976525;28;87276;-88
2021/04/24 10:12:10;;;;;;;94.65;90.53;;;44.90;21.50;;;;;;4984971;28;86975;-88
2021/04/24 10:14:44;;;;;;;55.88;53.05;;;45.30;22.70;;;;;;4977780;28;86674;-88
2021/04/24 10:17:18;;;;;;;180.02;172.90;;;45.10;21.70;;;;;;4966793;28;92047;-88
2021/04/24 10:19:55;;;;;;;209.55;191.10;;;44.80;21.40;;;;;;4984209;28;86831;-88
2021/04/24 10:22:23;;;;;;;92.38;87.88;;;45.20;22.20;;;;;;4983733;28;86847;-88
2021/04/24 10:24:50;;;;;;;103.65;99.30;;;;;;;;;;4988296;28;85514;-88
2021/04/24 10:27:17;;;;;;;110.20;105.55;;;45.40;21.50;;;;;;4988180;28;87314;-88
2021/04/24 10:33:30;;;;;;;52.92;50.13;;;44.90;21.50;;;;;;4984368;28;87676;-88
2021/04/24 10:35:56;;;;;;;67.15;64.25;;;44.80;21.60;;;;;;4990997;28;86757;-88
2021/04/24 10:38:23;;;;;;;56.95;54.15;;;44.20;21.10;;;;;;4989102;28;89154;-88
2021/04/24 10:40:50;;;;;;;68.80;65.40;;;44.50;21.40;;;;;;4992491;28;87484;-88
2021/04/24 10:43:20;;;;;;;70.47;67.25;;;44.70;21.20;;;;;;4977697;28;86715;-88
2021/04/24 10:45:46;;;;;;;61.42;58.47;;;44.50;21.00;;;;;;4995983;28;86802;-88
2021/04/24 10:48:26;;;;;;;56.40;53.80;;;44.90;20.50;;;;;;4993223;28;86790;-88
2021/04/24 10:50:52;;;;;;;62.58;59.63;;;44.90;20.80;;;;;;4992109;28;87022;-87
2021/04/24 10:53:24;;;;;;;128.65;123.30;;;45.30;20.80;;;;;;4974675;28;86987;-88
2021/04/24 10:55:52;;;;;;;49.88;47.42;;;45.60;20.30;;;;;;4990881;28;86708;-88
2021/04/24 11:08:20;;;;;;;141.75;135.52;;;45.40;21.10;;;;;;4951085;28;86893;-87
2021/04/24 11:13:56;;;;;;;86.13;82.13;;;45.10;20.20;;;;;;4952108;28;86856;-88
2021/04/24 11:19:47;;;;;;;104.80;100.10;;;45.10;20.60;;;;;;4951435;28;86322;-87
2021/04/24 11:22:33;;;;;;;120.45;115.28;;;45.40;20.90;;;;;;4917324;28;86757;-87
2021/04/24 11:25:17;;;;;;;66.57;63.40;;;45.80;20.60;;;;;;4928007;28;87765;-87
2021/04/24 11:28:05;;;;;;;37.97;35.92;;;45.60;20.60;;;;;;4927887;28;87659;-87
2021/04/24 11:30:50;;;;;;;37.70;35.72;;;45.40;20.50;;;;;;4928401;28;86882;-87
2021/04/24 11:33:31;;;;;;;25.10;23.67;;;44.80;20.00;;;;;;4927872;28;87704;-87
2021/04/24 11:36:16;;;;;;;33.47;31.67;;;43.50;20.40;;;;;;4928272;28;88061;-87
2021/04/24 11:39:00;;;;;;;44.35;42.33;;;43.50;20.50;;;;;;4931587;28;86550;-87
2021/04/24 11:41:29;;;;;;;37.90;36.05;;;43.90;20.80;;;;;;4946739;28;86897;-87
2021/04/24 11:43:55;;;;;;;36.75;34.60;;;44.10;20.60;;;;;;4948097;28;87639;-87
2021/04/24 11:46:35;;;;;;;40.30;38.38;;;43.30;20.20;;;;;;4946846;28;86346;-87
2021/04/24 11:52:23;;;;;;;47.50;45.17;;;43.30;20.30;;;;;;4946127;28;86814;-87
2021/04/24 11:54:52;;;;;;;44.78;42.63;;;43.70;19.90;;;;;;4947812;28;88575;-87
2021/04/24 11:57:19;;;;;;;33.30;31.65;;;43.80;20.30;;;;;;4948135;28;88580;-86
2021/04/24 11:59:48;;;;;;;44.65;42.28;;;44.20;20.50;;;;;;4948523;28;86664;-87
2021/04/24 12:02:20;;;;;;;43.13;40.67;;;44.10;20.10;;;;;;4929593;28;86761;-87
2021/04/24 12:04:57;;;;;;;49.72;47.45;;;43.90;20.50;;;;;;4947918;28;86914;-87
2021/04/24 12:07:22;;;;;;;36.70;34.83;;;44.10;20.30;;;;;;4947397;28;87140;-87
2021/04/24 12:13:11;;;;;;;46.60;44.38;;;43.50;20.10;;;;;;4951841;28;85905;-86
2021/04/24 12:15:38;;;;;;;47.85;45.65;;;43.30;20.30;;;;;;4980563;28;87196;-86
2021/04/24 12:18:06;;;;;;;39.00;36.90;;;43.30;20.40;;;;;;4963839;28;88657;-86
2021/04/24 12:20:42;;;;;;;46.53;44.08;;;42.40;20.60;;;;;;4984679;28;86970;-88
2021/04/24 12:23:10;;;;;;;59.78;57.03;;;42.70;20.60;;;;;;4967893;28;86466;-87
2021/04/24 12:25:38;;;;;;;72.10;68.80;;;42.60;20.60;;;;;;4967148;28;87483;-86
2021/04/24 12:28:07;;;;;;;56.28;53.75;;;42.70;20.80;;;;;;4952718;28;86867;-86
2021/04/24 12:30:43;;;;;;;57.27;54.70;;;42.60;21.00;;;;;;4931982;28;86711;-87
2021/04/24 12:33:12;;;;;;;54.00;51.58;;;42.20;20.40;;;;;;4928315;28;86743;-87
2021/04/24 12:36:06;;;;;;;128.10;122.80;;;42.40;20.10;;;;;;4927615;28;88099;-87
2021/04/24 12:42:10;;;;;;;180.20;173.20;;;42.30;20.10;;;;;;4944332;28;86740;-87
2021/04/24 12:51:21;;;;;;;116.70;112.07;;;41.70;20.10;;;;;;4943432;28;87973;-87
2021/04/24 12:53:49;;;;;;;118.53;113.90;;;41.60;19.80;;;;;;4945135;28;90106;-86
2021/04/24 12:56:21;;;;;;;176.98;170.10;;;41.40;20.20;;;;;;4946700;28;86885;-87
2021/04/24 12:58:51;;;;;;;135.35;129.75;;;41.30;20.30;;;;;;4946457;28;86945;-88
2021/04/24 13:01:25;;;;;;;130.77;125.65;;;41.40;20.10;;;;;;4945945;28;86937;-86
2021/04/24 13:03:54;;;;;;;66.47;63.47;;;41.40;20.10;;;;;;4959373;28;87002;-86
2021/04/24 13:06:25;;;;;;;35.47;33.80;;;40.80;19.50;;;;;;4965682;28;86307;-86
2021/04/24 13:09:04;;;;;;;38.78;36.97;;;40.50;20.10;;;;;;4965129;28;86876;-89
2021/04/24 13:11:39;;;;;;;32.67;31.15;;;40.50;19.50;;;;;;4955042;28;86728;-87
2021/04/24 13:14:45;;;;;;;33.20;31.45;;;40.50;19.80;;;;;;4946681;28;87169;-87
2021/04/24 13:17:13;;;;;;;51.42;49.13;;;40.20;20.60;;;;;;4947420;28;86846;-87
2021/04/24 13:19:46;;;;;;;50.78;48.55;;;39.80;20.10;;;;;;4946452;28;86807;-88
2021/04/24 13:22:12;;;;;;;54.17;51.65;;;39.50;20.10;;;;;;4945924;28;87870;-87
2021/04/24 13:24:46;;;;;;;138.75;132.93;;;39.30;20.40;;;;;;4946669;28;86707;-89
2021/04/24 13:27:12;;;;;;;102.05;97.95;;;39.20;20.70;;;;;;4959202;28;87014;-87
2021/04/24 13:29:41;;;;;;;104.70;100.45;;;38.90;20.40;;;;;;4965756;28;87365;-87
2021/04/24 13:32:10;;;;;;;73.93;70.72;;;38.70;20.50;;;;;;4965210;28;87986;-87
2021/04/24 13:34:38;;;;;;;145.45;139.43;;;38.40;20.80;;;;;;4968668;28;86661;-87
2021/04/24 13:40:30;;;;;;;201.43;192.48;;;37.60;21.10;;;;;;4984152;28;87237;-87
2021/04/24 13:42:55;;;;;;;50.38;47.97;;;37.40;21.00;;;;;;4987181;28;87567;-88
2021/04/24 13:45:21;;;;;;;100.38;96.07;;;37.50;21.40;;;;;;4975456;28;86868;-87
2021/04/24 13:51:11;;;;;;;57.00;54.45;;;37.20;21.40;;;;;;4983431;28;86275;-88
2021/04/24 13:53:55;;;;;;;104.60;100.30;;;37.00;21.70;;;;;;4986747;28;86435;-91
2021/04/24 13:56:21;;;;;;;66.85;63.88;;;;;;;;;;4978575;28;86952;-87
2021/04/24 13:58:47;;;;;;;66.97;63.85;;;36.10;21.30;;;;;;4969711;28;86356;-87
2021/04/24 14:07:12;;;;;;;244.90;236.00;;;35.50;22.30;;;;;;4965511;28;87525;-86
2021/04/24 14:13:06;;;;;;;172.35;164.80;;;35.30;22.50;;;;;;4965376;28;87088;-87
2021/04/24 14:15:33;;;;;;;241.68;231.23;;;34.80;22.50;;;;;;4950616;28;90205;-87
2021/04/24 14:17:59;;;;;;;175.95;168.65;;;;;;;;;;4968735;28;86720;-87
2021/04/24 14:20:25;;;;;;;208.60;199.93;;;34.60;22.50;;;;;;4967902;28;87765;-87
2021/04/24 14:26:17;;;;;;;45.42;43.13;;;33.70;23.00;;;;;;4967371;28;86493;-87
2021/04/24 14:28:44;;;;;;;256.10;245.85;;;33.20;22.80;;;;;;4966365;28;86849;-87
2021/04/24 14:31:12;;;;;;;174.13;167.02;;;;;;;;;;4966912;28;86875;-86
2021/04/24 14:34:37;;;;;;;120.35;115.18;;;32.90;22.90;;;;;;4965856;28;88533;-86
2021/04/24 14:47:43;;;;;;;32.97;31.38;;;31.60;24.40;;;;;;4965844;28;87361;-87
2021/04/24 15:00:25;;;;;;;157.40;150.73;;;29.80;25.20;;;;;;5037827;23;86884;-88
2021/04/24 15:06:17;;;;;;;51.78;49.10;;;29.60;25.80;;;;;;4963285;28;87670;-87
2021/04/24 15:15:19;;;;;;;73.72;70.38;;;28.40;26.20;;;;;;4968713;28;86439;-90
2021/04/24 15:17:45;;;;;;;92.45;88.43;;;28.30;26.50;;;;;;4967328;28;86799;-88
2021/04/24 15:20:12;;;;;;;141.98;136.15;;;28.20;26.40;;;;;;4970142;28;86847;-88
2021/04/24 15:22:39;;;;;;;64.35;61.42;;;27.90;26.50;;;;;;4972693;28;86912;-87
2021/04/24 15:25:24;;;;;;;34.90;33.08;;;27.70;26.70;;;;;;4970414;28;87586;-85
2021/04/24 15:32:05;;;;;;;80.80;77.00;;;27.40;26.90;;;;;;4967608;28;86820;-87
2021/04/24 15:38:01;;;;;;;78.28;74.80;;;26.90;26.40;;;;;;4970303;28;87934;-87
2021/04/24 15:40:27;;;;;;;87.38;83.63;;;26.70;27.40;;;;;;4969850;28;86863;-86
2021/04/24 15:43:30;;;;;;;132.68;127.35;;;26.50;27.30;;;;;;4952017;28;86869;-87
2021/04/24 15:45:55;;;;;;;81.82;77.97;;;26.50;28.20;;;;;;4968745;28;87732;-87
2021/04/24 15:48:21;;;;;;;129.88;124.32;;;26.30;27.50;;;;;;4969565;28;87778;-87
2021/04/24 15:50:52;;;;;;;227.48;218.02;;;26.20;27.40;;;;;;4969208;28;86448;-87
2021/04/24 16:00:14;;;;;;;104.97;99.68;;;25.70;27.60;;;;;;4969332;28;86526;-88
2021/04/24 16:02:40;;;;;;;158.55;151.80;;;25.50;27.40;;;;;;4946945;28;87637;-88
2021/04/24 16:05:06;;;;;;;161.15;154.55;;;25.40;27.60;;;;;;4930766;28;86769;-87
2021/04/24 16:07:37;;;;;;;222.18;213.55;;;;;;;;;;4948674;28;86706;-91
2021/04/24 16:10:05;;;;;;;187.20;179.82;;;25.20;27.40;;;;;;4933269;28;87857;-90
2021/04/24 16:12:31;;;;;;;168.07;161.32;;;24.90;27.40;;;;;;4953789;28;86816;-93
2021/04/24 16:15:01;;;;;;;137.65;131.68;;;24.80;27.60;;;;;;4933360;28;86745;-91
2021/04/24 16:17:29;;;;;;;123.85;118.72;;;;;;;;;;4932580;28;87170;-90
2021/04/24 16:23:19;;;;;;;54.83;52.35;;;24.60;27.60;;;;;;4947684;28;86430;-91
2021/04/24 16:25:45;;;;;;;49.88;47.70;;;;;;;;;;4948902;28;87118;-91
2021/04/24 16:28:12;;;;;;;37.67;35.83;;;24.20;27.20;;;;;;4949183;28;88653;-91
2021/04/24 16:34:01;;;;;;;47.55;45.25;;;23.80;27.20;;;;;;4930174;28;86539;-92
2021/04/24 16:39:49;;;;;;;40.03;37.92;;;23.70;27.20;;;;;;4928866;28;86501;-89
2021/04/24 16:42:15;;;;;;;29.30;27.73;;;23.40;27.60;;;;;;4929029;28;89700;-90
2021/04/24 16:48:05;;;;;;;27.90;26.50;;;23.30;28.40;;;;;;4928316;28;86101;-89
2021/04/24 16:53:53;;;;;;;61.17;58.50;;;22.90;28.40;;;;;;4929900;28;86893;-88
2021/04/24 16:56:19;;;;;;;63.67;60.97;;;22.70;28.50;;;;;;4929739;28;87634;-88
2021/04/24 17:02:07;;;;;;;36.85;35.05;;;22.40;28.60;;;;;;4937036;28;86923;-87
2021/04/24 17:04:33;;;;;;;27.52;26.10;;;22.20;28.50;;;;;;4930913;28;88975;-86
2021/04/24 17:13:39;;;;;;;30.10;28.40;;;21.70;29.20;;;;;;4885821;28;87176;-86
2021/04/24 17:16:05;;;;;;;40.88;38.83;;;21.30;29.20;;;;;;4941188;28;89606;-88
2021/04/24 18:34:36;;;;;;;29.48;27.38;;;16.40;42.10;;;;;;5243286;22;87861;-91
2021/04/24 18:37:25;;;;;;;32.92;30.85;;;16.20;43.70;;;;;;4954431;28;89104;-93
2021/04/24 18:46:45;;;;;;;27.65;26.00;;;15.50;44.50;;;;;;4965341;28;85376;-92
2021/04/24 18:49:21;;;;;;;21.75;20.40;;;15.40;46.80;;;;;;4965187;28;88036;-94
2021/04/24 18:58:33;;;;;;;22.63;21.23;;;15.00;46.80;;;;;;4927461;28;86457;-93
2021/04/24 19:12:24;;;;;;;30.27;28.08;;;;;;;;;;4982223;28;86660;-92
2021/04/24 19:18:13;;;;;;;72.18;68.78;;;;;;;;;;4983197;28;86006;-91
2021/04/24 19:24:01;;;;;;;44.20;41.70;;;;;;;;;;4982236;28;87077;-91
2021/04/24 19:26:29;;;;;;;81.18;77.35;;;;;;;;;;4965117;28;89368;-92
2021/04/24 19:28:59;;;;;;;87.07;83.07;;;13.90;50.10;;;;;;4971094;28;86958;-91
2021/04/24 19:31:25;;;;;;;43.33;40.92;;;;;;;;;;4960328;28;86279;-91
2021/04/24 19:33:51;;;;;;;24.42;22.75;;;;;;;;;;4967258;28;88952;-91
2021/04/24 19:36:20;;;;;;;23.92;21.92;;;13.50;51.50;;;;;;4971665;28;88877;-92
2021/04/24 19:38:47;;;;;;;26.25;24.33;;;;;;;;;;4950989;28;86270;-92
2021/04/24 19:41:13;;;;;;;26.58;24.38;;;;;;;;;;4959427;28;85789;-91
2021/04/24 19:43:39;;;;;;;23.85;21.73;;;;;;;;;;4955709;28;90596;-92
2021/04/24 19:46:09;;;;;;;21.98;20.00;;;13.20;52.80;;;;;;4955775;28;88709;-92
2021/04/24 19:52:01;;;;;;;26.90;24.75;;;14.80;57.00;;;;;;4971469;28;86519;-92
2021/04/24 19:57:51;;;;;;;25.45;23.35;;;;;;;;;;4971005;28;86920;-93
2021/04/24 20:00:21;;;;;;;26.17;24.08;;;12.70;57.20;;;;;;4955879;28;86912;-92
2021/04/24 20:02:47;;;;;;;48.47;45.78;;;;;;;;;;4955342;28;86288;-92
2021/04/24 20:05:14;;;;;;;48.25;45.05;;;12.60;60.30;;;;;;4955051;28;89866;-91
2021/04/24 20:11:11;;;;;;;27.77;25.88;;;;;;;;;;4957465;28;86348;-91
2021/04/24 20:13:37;;;;;;;20.50;18.80;;;;;;;;;;4949947;28;86718;-92
2021/04/24 20:22:36;;;;;;;22.35;20.65;;;12.40;61.10;;;;;;4891208;28;86655;-92
2021/04/24 20:34:56;;;;;;;24.10;22.10;;;12.20;63.10;;;;;;4914152;28;86790;-92
2021/04/24 20:40:57;;;;;;;24.08;22.30;;;12.30;62.60;;;;;;4913040;28;86277;-92
2021/04/24 20:46:46;;;;;;;38.92;36.47;;;12.40;61.20;;;;;;4908577;28;87050;-92
2021/04/24 20:56:01;;;;;;;31.70;29.52;;;12.30;61.50;;;;;;4923317;28;86033;-92
2021/04/24 21:10:43;;;;;;;22.27;20.02;;;12.20;68.80;;;;;;4964714;28;87001;-91
2021/04/24 21:13:09;;;;;;;21.50;19.60;;;;;;;;;;4967417;28;86825;-90
2021/04/24 21:18:57;;;;;;;22.98;21.08;;;;;;;;;;4963855;28;86754;-90
2021/04/24 21:21:24;;;;;;;23.15;21.40;;;;;;;;;;4968278;28;86858;-91
2021/04/24 21:23:51;;;;;;;20.63;18.80;;;11.80;66.60;;;;;;4967525;28;86855;-87
2021/04/24 21:26:19;;;;;;;22.65;20.48;;;11.70;67.60;;;;;;4965993;28;87185;-87
2021/04/24 21:28:46;;;;;;;21.88;19.95;;;;;;;;;;4966357;28;86970;-87
2021/04/24 21:31:12;;;;;;;25.13;22.65;;;;;;;;;;4966394;28;86685;-87
2021/04/24 21:41:19;;;;;;;21.52;19.50;;;11.40;70.00;;;;;;4968257;28;86386;-92